sensor_id;sensor_type;location;lat;lon;timestamp;pressure;altitude;pressure_sealevel;temperature;humidity
70833;BME280;58452;59.418;17.962;2022-11-20T00:00:01;101604.97;;;-0.03;86.99
70833;BME280;58452;59.418;17.962;2022-11-20T00:02:28;101598.47;;;-0.10;87.29
70833;BME280;58452;59.418;17.962;2022-11-20T00:04:53;101589.75;;;-0.03;87.05
70833;BME280;58452;59.418;17.962;2022-11-20T00:07:18;101600.31;;;0.10;86.66
70833;BME280;58452;59.418;17.962;2022-11-20T00:09:44;101587.19;;;0.22;85.85
70833;BME280;58452;59.418;17.962;2022-11-20T00:12:09;101584.16;;;0.13;85.10
70833;BME280;58452;59.418;17.962;2022-11-20T00:14:34;101579.22;;;0.08;85.21
70833;BME280;58452;59.418;17.962;2022-11-20T00:17:00;101584.16;;;0.13;85.30
70833;BME280;58452;59.418;17.962;2022-11-20T00:19:25;101574.72;;;0.16;84.72
70833;BME280;58452;59.418;17.962;2022-11-20T00:21:50;101585.94;;;0.11;85.60
70833;BME280;58452;59.418;17.962;2022-11-20T00:24:18;101583.19;;;0.15;85.38
70833;BME280;58452;59.418;17.962;2022-11-20T00:26:44;101583.91;;;0.19;85.22
70833;BME280;58452;59.418;17.962;2022-11-20T00:29:09;101578.66;;;0.25;85.09
70833;BME280;58452;59.418;17.962;2022-11-20T00:31:36;101573.69;;;0.22;85.06
70833;BME280;58452;59.418;17.962;2022-11-20T00:34:01;101562.63;;;0.23;84.86
70833;BME280;58452;59.418;17.962;2022-11-20T00:36:28;101577.09;;;0.21;84.52
70833;BME280;58452;59.418;17.962;2022-11-20T00:38:55;101574.72;;;0.16;84.24
70833;BME280;58452;59.418;17.962;2022-11-20T00:41:22;101562.84;;;0.17;84.10
70833;BME280;58452;59.418;17.962;2022-11-20T00:43:48;101554.38;;;0.18;84.52
70833;BME280;58452;59.418;17.962;2022-11-20T00:46:16;101557.78;;;0.17;83.80
70833;BME280;58452;59.418;17.962;2022-11-20T00:48:43;101547.47;;;0.21;84.09
70833;BME280;58452;59.418;17.962;2022-11-20T00:51:09;101553.13;;;0.28;84.16
70833;BME280;58452;59.418;17.962;2022-11-20T00:53:36;101549.00;;;0.25;84.38
70833;BME280;58452;59.418;17.962;2022-11-20T00:56:07;101536.91;;;0.32;83.17
70833;BME280;58452;59.418;17.962;2022-11-20T00:58:38;101539.28;;;0.36;83.42
70833;BME280;58452;59.418;17.962;2022-11-20T01:01:11;101544.41;;;0.35;83.81
70833;BME280;58452;59.418;17.962;2022-11-20T01:03:42;101539.78;;;0.23;83.78
70833;BME280;58452;59.418;17.962;2022-11-20T01:06:16;101537.66;;;0.34;83.76
70833;BME280;58452;59.418;17.962;2022-11-20T01:08:43;101533.06;;;0.22;83.46
70833;BME280;58452;59.418;17.962;2022-11-20T01:11:20;101536.38;;;0.24;84.10
70833;BME280;58452;59.418;17.962;2022-11-20T01:13:47;101523.34;;;0.10;84.09
70833;BME280;58452;59.418;17.962;2022-11-20T01:16:21;101531.44;;;0.19;84.44
70833;BME280;58452;59.418;17.962;2022-11-20T01:18:49;101530.25;;;0.29;84.24
70833;BME280;58452;59.418;17.962;2022-11-20T01:21:19;101540.63;;;0.45;83.65
70833;BME280;58452;59.418;17.962;2022-11-20T01:23:45;101535.34;;;0.29;83.58
70833;BME280;58452;59.418;17.962;2022-11-20T01:26:16;101535.69;;;0.42;83.27
70833;BME280;58452;59.418;17.962;2022-11-20T01:28:42;101524.66;;;0.43;83.22
70833;BME280;58452;59.418;17.962;2022-11-20T01:31:28;101513.94;;;0.35;83.40
70833;BME280;58452;59.418;17.962;2022-11-20T01:33:55;101525.41;;;0.45;83.33
70833;BME280;58452;59.418;17.962;2022-11-20T01:36:22;101517.19;;;0.38;82.94
70833;BME280;58452;59.418;17.962;2022-11-20T01:38:52;101507.44;;;0.28;83.20
70833;BME280;58452;59.418;17.962;2022-11-20T01:41:18;101520.31;;;0.23;83.11
70833;BME280;58452;59.418;17.962;2022-11-20T01:44:03;101514.06;;;0.32;83.58
70833;BME280;58452;59.418;17.962;2022-11-20T01:46:31;101510.66;;;0.33;83.46
70833;BME280;58452;59.418;17.962;2022-11-20T01:51:39;101499.25;;;0.43;83.50
70833;BME280;58452;59.418;17.962;2022-11-20T01:54:08;101492.69;;;0.37;83.28
70833;BME280;58452;59.418;17.962;2022-11-20T01:56:38;101492.69;;;0.37;83.42
70833;BME280;58452;59.418;17.962;2022-11-20T01:59:07;101486.03;;;0.35;83.34
70833;BME280;58452;59.418;17.962;2022-11-20T02:01:34;101480.78;;;0.39;82.53
70833;BME280;58452;59.418;17.962;2022-11-20T02:04:00;101472.38;;;0.37;82.34
70833;BME280;58452;59.418;17.962;2022-11-20T02:06:29;101483.47;;;0.35;83.49
70833;BME280;58452;59.418;17.962;2022-11-20T02:08:56;101477.31;;;0.19;83.32
70833;BME280;58452;59.418;17.962;2022-11-20T02:11:22;101475.56;;;0.21;83.73
70833;BME280;58452;59.418;17.962;2022-11-20T02:13:48;101477.00;;;0.28;83.24
70833;BME280;58452;59.418;17.962;2022-11-20T02:18:45;101471.06;;;0.06;84.20
70833;BME280;58452;59.418;17.962;2022-11-20T02:26:20;101455.59;;;0.12;83.23
70833;BME280;58452;59.418;17.962;2022-11-20T02:28:48;101457.72;;;0.22;83.54
70833;BME280;58452;59.418;17.962;2022-11-20T02:31:13;101454.72;;;0.13;83.95
70833;BME280;58452;59.418;17.962;2022-11-20T02:33:39;101447.34;;;0.07;84.02
70833;BME280;58452;59.418;17.962;2022-11-20T02:36:04;101438.09;;;-0.18;84.83
70833;BME280;58452;59.418;17.962;2022-11-20T02:38:31;101442.28;;;-0.17;85.26
70833;BME280;58452;59.418;17.962;2022-11-20T02:40:56;101442.84;;;-0.09;85.50
70833;BME280;58452;59.418;17.962;2022-11-20T02:43:22;101436.66;;;-0.02;84.73
70833;BME280;58452;59.418;17.962;2022-11-20T02:45:48;101437.53;;;-0.03;84.37
70833;BME280;58452;59.418;17.962;2022-11-20T02:48:13;101433.94;;;0.03;84.91
70833;BME280;58452;59.418;17.962;2022-11-20T02:50:39;101433.75;;;0.08;84.44
70833;BME280;58452;59.418;17.962;2022-11-20T02:53:05;101442.72;;;-0.06;84.93
70833;BME280;58452;59.418;17.962;2022-11-20T02:55:31;101422.66;;;-0.12;85.22
70833;BME280;58452;59.418;17.962;2022-11-20T02:57:56;101430.91;;;-0.07;85.65
70833;BME280;58452;59.418;17.962;2022-11-20T03:00:22;101428.22;;;-0.02;85.12
70833;BME280;58452;59.418;17.962;2022-11-20T03:02:47;101423.59;;;0.08;84.69
70833;BME280;58452;59.418;17.962;2022-11-20T03:05:13;101427.34;;;0.21;84.13
70833;BME280;58452;59.418;17.962;2022-11-20T03:07:38;101419.97;;;0.15;84.75
70833;BME280;58452;59.418;17.962;2022-11-20T03:10:04;101415.41;;;0.23;83.70
70833;BME280;58452;59.418;17.962;2022-11-20T03:12:30;101415.81;;;0.12;83.55
70833;BME280;58452;59.418;17.962;2022-11-20T03:14:55;101405.75;;;0.11;83.72
70833;BME280;58452;59.418;17.962;2022-11-20T03:17:20;101410.81;;;0.11;84.57
70833;BME280;58452;59.418;17.962;2022-11-20T03:19:46;101408.03;;;0.17;83.74
70833;BME280;58452;59.418;17.962;2022-11-20T03:22:11;101408.50;;;0.05;83.60
70833;BME280;58452;59.418;17.962;2022-11-20T03:24:37;101406.97;;;0.00;84.05
70833;BME280;58452;59.418;17.962;2022-11-20T03:27:02;101402.59;;;0.04;84.71
70833;BME280;58452;59.418;17.962;2022-11-20T03:29:27;101405.41;;;-0.04;84.77
70833;BME280;58452;59.418;17.962;2022-11-20T03:31:53;101400.00;;;0.06;84.01
70833;BME280;58452;59.418;17.962;2022-11-20T03:34:18;101404.38;;;0.02;84.04
70833;BME280;58452;59.418;17.962;2022-11-20T03:36:43;101398.59;;;-0.02;85.31
70833;BME280;58452;59.418;17.962;2022-11-20T03:39:09;101402.38;;;-0.12;85.55
70833;BME280;58452;59.418;17.962;2022-11-20T03:41:39;101390.56;;;-0.13;85.31
70833;BME280;58452;59.418;17.962;2022-11-20T03:44:07;101386.59;;;-0.20;85.98
70833;BME280;58452;59.418;17.962;2022-11-20T03:46:33;101386.03;;;-0.05;85.10
70833;BME280;58452;59.418;17.962;2022-11-20T03:48:59;101376.56;;;-0.23;85.76
70833;BME280;58452;59.418;17.962;2022-11-20T03:51:26;101362.00;;;-0.18;84.88
70833;BME280;58452;59.418;17.962;2022-11-20T03:53:54;101364.72;;;-0.22;84.57
70833;BME280;58452;59.418;17.962;2022-11-20T03:56:25;101366.03;;;-0.12;84.88
70833;BME280;58452;59.418;17.962;2022-11-20T03:58:51;101366.72;;;-0.09;85.15
70833;BME280;58452;59.418;17.962;2022-11-20T04:01:21;101361.88;;;-0.15;84.34
70833;BME280;58452;59.418;17.962;2022-11-20T04:03:47;101356.59;;;-0.09;84.48
70833;BME280;58452;59.418;17.962;2022-11-20T04:06:15;101353.81;;;-0.03;84.10
70833;BME280;58452;59.418;17.962;2022-11-20T04:08:41;101346.19;;;-0.03;83.62
70833;BME280;58452;59.418;17.962;2022-11-20T04:11:15;101354.94;;;-0.10;83.40
70833;BME280;58452;59.418;17.962;2022-11-20T04:13:41;101348.31;;;-0.14;83.51
70833;BME280;58452;59.418;17.962;2022-11-20T04:16:09;101349.19;;;-0.15;84.13
70833;BME280;58452;59.418;17.962;2022-11-20T04:18:35;101336.75;;;-0.21;83.65
70833;BME280;58452;59.418;17.962;2022-11-20T04:21:01;101343.25;;;-0.14;83.68
70833;BME280;58452;59.418;17.962;2022-11-20T04:23:26;101325.91;;;-0.24;83.53
70833;BME280;58452;59.418;17.962;2022-11-20T04:25:52;101334.88;;;-0.16;83.55
70833;BME280;58452;59.418;17.962;2022-11-20T04:28:17;101330.69;;;-0.17;83.11
70833;BME280;58452;59.418;17.962;2022-11-20T04:30:43;101331.03;;;-0.04;82.77
70833;BME280;58452;59.418;17.962;2022-11-20T04:33:08;101332.16;;;-0.11;83.15
70833;BME280;58452;59.418;17.962;2022-11-20T04:35:35;101330.94;;;-0.23;83.48
70833;BME280;58452;59.418;17.962;2022-11-20T04:38:01;101327.19;;;-0.14;83.31
70833;BME280;58452;59.418;17.962;2022-11-20T04:40:27;101302.91;;;-0.20;83.62
70833;BME280;58452;59.418;17.962;2022-11-20T04:42:53;101313.28;;;-0.26;84.23
70833;BME280;58452;59.418;17.962;2022-11-20T04:45:19;101314.59;;;-0.16;83.51
70833;BME280;58452;59.418;17.962;2022-11-20T04:47:44;101297.38;;;-0.08;83.57
70833;BME280;58452;59.418;17.962;2022-11-20T04:50:10;101308.09;;;-0.01;83.29
70833;BME280;58452;59.418;17.962;2022-11-20T04:52:35;101291.09;;;-0.21;83.45
70833;BME280;58452;59.418;17.962;2022-11-20T04:55:01;101302.44;;;-0.08;83.53
70833;BME280;58452;59.418;17.962;2022-11-20T04:57:26;101301.47;;;-0.05;82.76
70833;BME280;58452;59.418;17.962;2022-11-20T04:59:51;101301.94;;;-0.17;83.32
70833;BME280;58452;59.418;17.962;2022-11-20T05:02:17;101302.50;;;-0.31;84.17
70833;BME280;58452;59.418;17.962;2022-11-20T05:04:42;101293.47;;;-0.16;84.16
70833;BME280;58452;59.418;17.962;2022-11-20T05:07:07;101288.22;;;-0.12;84.26
70833;BME280;58452;59.418;17.962;2022-11-20T05:09:33;101291.81;;;-0.17;83.75
70833;BME280;58452;59.418;17.962;2022-11-20T05:11:58;101280.38;;;-0.27;84.55
70833;BME280;58452;59.418;17.962;2022-11-20T05:14:24;101289.34;;;-0.19;84.13
70833;BME280;58452;59.418;17.962;2022-11-20T05:16:49;101276.28;;;-0.10;84.15
70833;BME280;58452;59.418;17.962;2022-11-20T05:19:14;101270.38;;;-0.10;83.90
70833;BME280;58452;59.418;17.962;2022-11-20T05:21:40;101271.47;;;-0.16;83.60
70833;BME280;58452;59.418;17.962;2022-11-20T05:24:05;101270.47;;;-0.12;83.23
70833;BME280;58452;59.418;17.962;2022-11-20T05:26:32;101269.81;;;-0.17;83.15
70833;BME280;58452;59.418;17.962;2022-11-20T05:28:57;101269.69;;;-0.14;83.59
70833;BME280;58452;59.418;17.962;2022-11-20T05:31:24;101264.88;;;0.00;82.61
70833;BME280;58452;59.418;17.962;2022-11-20T05:33:50;101258.28;;;-0.04;83.22
70833;BME280;58452;59.418;17.962;2022-11-20T05:36:16;101267.66;;;-0.06;83.07
70833;BME280;58452;59.418;17.962;2022-11-20T05:38:42;101261.94;;;-0.11;83.16
70833;BME280;58452;59.418;17.962;2022-11-20T05:41:16;101252.22;;;-0.21;84.43
70833;BME280;58452;59.418;17.962;2022-11-20T05:43:44;101250.16;;;-0.12;84.40
70833;BME280;58452;59.418;17.962;2022-11-20T05:46:12;101257.25;;;0.00;83.61
70833;BME280;58452;59.418;17.962;2022-11-20T05:48:40;101253.59;;;-0.13;84.08
70833;BME280;58452;59.418;17.962;2022-11-20T05:51:08;101241.56;;;-0.08;83.88
70833;BME280;58452;59.418;17.962;2022-11-20T05:53:34;101244.81;;;-0.26;84.74
70833;BME280;58452;59.418;17.962;2022-11-20T05:56:02;101248.06;;;-0.22;84.31
70833;BME280;58452;59.418;17.962;2022-11-20T05:58:28;101249.69;;;-0.21;84.66
70833;BME280;58452;59.418;17.962;2022-11-20T06:00:54;101240.06;;;-0.13;84.64
70833;BME280;58452;59.418;17.962;2022-11-20T06:03:20;101249.56;;;0.04;84.18
70833;BME280;58452;59.418;17.962;2022-11-20T06:05:45;101241.16;;;0.02;83.96
70833;BME280;58452;59.418;17.962;2022-11-20T06:08:11;101238.88;;;-0.05;84.40
70833;BME280;58452;59.418;17.962;2022-11-20T06:10:36;101228.44;;;0.03;84.28
70833;BME280;58452;59.418;17.962;2022-11-20T06:13:02;101234.19;;;0.07;84.07
70833;BME280;58452;59.418;17.962;2022-11-20T06:15:27;101227.19;;;0.12;83.51
70833;BME280;58452;59.418;17.962;2022-11-20T06:17:53;101226.38;;;0.11;82.90
70833;BME280;58452;59.418;17.962;2022-11-20T06:20:20;101223.22;;;0.06;83.42
70833;BME280;58452;59.418;17.962;2022-11-20T06:22:45;101224.06;;;0.07;83.27
70833;BME280;58452;59.418;17.962;2022-11-20T06:25:11;101221.56;;;0.05;83.10
70833;BME280;58452;59.418;17.962;2022-11-20T06:27:36;101238.63;;;0.02;84.02
70833;BME280;58452;59.418;17.962;2022-11-20T06:30:02;101223.97;;;-0.12;84.16
70833;BME280;58452;59.418;17.962;2022-11-20T06:32:27;101227.22;;;-0.09;84.62
70833;BME280;58452;59.418;17.962;2022-11-20T06:34:53;101223.00;;;-0.10;84.25
70833;BME280;58452;59.418;17.962;2022-11-20T06:37:18;101218.28;;;0.03;83.89
70833;BME280;58452;59.418;17.962;2022-11-20T06:39:43;101211.28;;;0.08;83.54
70833;BME280;58452;59.418;17.962;2022-11-20T06:42:09;101208.97;;;0.04;83.50
70833;BME280;58452;59.418;17.962;2022-11-20T06:44:34;101205.50;;;0.05;84.03
70833;BME280;58452;59.418;17.962;2022-11-20T06:46:59;101207.91;;;0.08;83.26
70833;BME280;58452;59.418;17.962;2022-11-20T06:49:25;101208.81;;;0.07;83.59
70833;BME280;58452;59.418;17.962;2022-11-20T06:51:51;101200.69;;;-0.02;84.05
70833;BME280;58452;59.418;17.962;2022-11-20T06:54:16;101199.50;;;0.07;83.25
70833;BME280;58452;59.418;17.962;2022-11-20T06:56:41;101194.78;;;-0.02;83.07
70833;BME280;58452;59.418;17.962;2022-11-20T06:59:07;101179.56;;;-0.02;84.09
70833;BME280;58452;59.418;17.962;2022-11-20T07:01:33;101195.06;;;-0.08;83.68
70833;BME280;58452;59.418;17.962;2022-11-20T07:03:58;101193.13;;;-0.03;84.15
70833;BME280;58452;59.418;17.962;2022-11-20T07:06:24;101205.63;;;0.02;83.82
70833;BME280;58452;59.418;17.962;2022-11-20T07:08:52;101199.75;;;0.01;83.99
70833;BME280;58452;59.418;17.962;2022-11-20T07:11:17;101205.97;;;0.14;82.80
70833;BME280;58452;59.418;17.962;2022-11-20T07:13:43;101208.81;;;0.07;83.52
70833;BME280;58452;59.418;17.962;2022-11-20T07:16:08;101205.28;;;0.11;83.43
70833;BME280;58452;59.418;17.962;2022-11-20T07:18:34;101206.84;;;0.13;82.65
70833;BME280;58452;59.418;17.962;2022-11-20T07:21:01;101194.03;;;0.16;83.29
70833;BME280;58452;59.418;17.962;2022-11-20T07:23:27;101197.41;;;0.17;83.12
70833;BME280;58452;59.418;17.962;2022-11-20T07:25:52;101185.66;;;0.14;82.85
70833;BME280;58452;59.418;17.962;2022-11-20T07:28:17;101184.66;;;0.18;82.60
70833;BME280;58452;59.418;17.962;2022-11-20T07:30:49;101177.66;;;0.23;82.77
70833;BME280;58452;59.418;17.962;2022-11-20T07:33:15;101172.66;;;0.22;82.87
70833;BME280;58452;59.418;17.962;2022-11-20T07:35:40;101159.84;;;0.25;82.74
70833;BME280;58452;59.418;17.962;2022-11-20T07:38:05;101164.53;;;0.14;82.15
70833;BME280;58452;59.418;17.962;2022-11-20T07:40:31;101175.31;;;-0.02;82.94
70833;BME280;58452;59.418;17.962;2022-11-20T07:42:56;101171.66;;;0.06;83.07
70833;BME280;58452;59.418;17.962;2022-11-20T07:45:23;101162.63;;;0.19;83.27
70833;BME280;58452;59.418;17.962;2022-11-20T07:47:49;101151.06;;;0.12;83.36
70833;BME280;58452;59.418;17.962;2022-11-20T07:50:15;101155.47;;;0.08;83.46
70833;BME280;58452;59.418;17.962;2022-11-20T07:52:40;101154.63;;;0.08;84.00
70833;BME280;58452;59.418;17.962;2022-11-20T07:55:06;101146.13;;;0.09;84.08
70833;BME280;58452;59.418;17.962;2022-11-20T07:57:32;101156.78;;;0.17;83.15
70833;BME280;58452;59.418;17.962;2022-11-20T07:59:57;101164.13;;;0.23;83.14
70833;BME280;58452;59.418;17.962;2022-11-20T08:02:23;101155.78;;;0.21;84.00
70833;BME280;58452;59.418;17.962;2022-11-20T08:04:48;101140.28;;;0.27;83.14
70833;BME280;58452;59.418;17.962;2022-11-20T08:07:14;101144.00;;;0.38;83.54
70833;BME280;58452;59.418;17.962;2022-11-20T08:09:39;101136.69;;;0.12;83.85
70833;BME280;58452;59.418;17.962;2022-11-20T08:12:05;101129.44;;;0.23;83.46
70833;BME280;58452;59.418;17.962;2022-11-20T08:14:49;101132.16;;;0.19;83.69
70833;BME280;58452;59.418;17.962;2022-11-20T08:17:15;101129.97;;;0.30;83.91
70833;BME280;58452;59.418;17.962;2022-11-20T08:19:40;101130.34;;;0.41;83.69
70833;BME280;58452;59.418;17.962;2022-11-20T08:22:05;101129.81;;;0.53;83.37
70833;BME280;58452;59.418;17.962;2022-11-20T08:24:31;101134.25;;;0.48;82.33
70833;BME280;58452;59.418;17.962;2022-11-20T08:27:00;101137.41;;;0.53;82.62
70833;BME280;58452;59.418;17.962;2022-11-20T08:29:28;101125.47;;;0.55;82.82
70833;BME280;58452;59.418;17.962;2022-11-20T08:31:54;101120.53;;;0.52;82.63
70833;BME280;58452;59.418;17.962;2022-11-20T08:34:19;101122.31;;;0.50;82.98
70833;BME280;58452;59.418;17.962;2022-11-20T08:36:44;101115.53;;;0.51;83.22
70833;BME280;58452;59.418;17.962;2022-11-20T08:39:13;101104.47;;;0.52;83.06
70833;BME280;58452;59.418;17.962;2022-11-20T08:41:39;101099.53;;;0.48;83.06
70833;BME280;58452;59.418;17.962;2022-11-20T08:44:06;101096.06;;;0.51;82.91
70833;BME280;58452;59.418;17.962;2022-11-20T08:46:41;101107.91;;;0.51;83.20
70833;BME280;58452;59.418;17.962;2022-11-20T08:49:10;101096.59;;;0.58;82.25
70833;BME280;58452;59.418;17.962;2022-11-20T08:51:37;101098.69;;;0.48;82.86
70833;BME280;58452;59.418;17.962;2022-11-20T08:54:03;101086.50;;;0.37;83.24
70833;BME280;58452;59.418;17.962;2022-11-20T08:56:29;101086.78;;;0.50;82.87
70833;BME280;58452;59.418;17.962;2022-11-20T08:58:55;101090.34;;;0.46;82.86
70833;BME280;58452;59.418;17.962;2022-11-20T09:01:22;101083.06;;;0.38;83.87
70833;BME280;58452;59.418;17.962;2022-11-20T09:03:48;101084.63;;;0.41;83.54
70833;BME280;58452;59.418;17.962;2022-11-20T09:06:14;101084.72;;;0.58;83.27
70833;BME280;58452;59.418;17.962;2022-11-20T09:08:40;101074.00;;;0.52;82.76
70833;BME280;58452;59.418;17.962;2022-11-20T09:11:06;101067.97;;;0.54;83.11
70833;BME280;58452;59.418;17.962;2022-11-20T09:13:33;101074.91;;;0.69;82.69
70833;BME280;58452;59.418;17.962;2022-11-20T09:16:09;101064.41;;;0.58;83.07
70833;BME280;58452;59.418;17.962;2022-11-20T09:18:35;101074.91;;;0.69;82.88
70833;BME280;58452;59.418;17.962;2022-11-20T09:21:09;101072.63;;;0.63;82.87
70833;BME280;58452;59.418;17.962;2022-11-20T09:23:38;101066.31;;;0.72;82.53
70833;BME280;58452;59.418;17.962;2022-11-20T09:26:10;101063.56;;;0.76;82.85
70833;BME280;58452;59.418;17.962;2022-11-20T09:28:36;101066.56;;;0.84;82.21
70833;BME280;58452;59.418;17.962;2022-11-20T09:31:08;101065.06;;;0.80;82.32
70833;BME280;58452;59.418;17.962;2022-11-20T09:33:35;101056.81;;;0.75;82.15
70833;BME280;58452;59.418;17.962;2022-11-20T09:36:00;101052.84;;;0.70;82.33
70833;BME280;58452;59.418;17.962;2022-11-20T09:38:26;101047.28;;;0.80;82.35
70833;BME280;58452;59.418;17.962;2022-11-20T09:40:56;101032.63;;;0.85;81.91
70833;BME280;58452;59.418;17.962;2022-11-20T09:43:50;101039.22;;;0.89;81.86
70833;BME280;58452;59.418;17.962;2022-11-20T09:46:35;101047.44;;;0.94;82.20
70833;BME280;58452;59.418;17.962;2022-11-20T09:52:04;101035.31;;;0.82;82.80
70833;BME280;58452;59.418;17.962;2022-11-20T09:54:35;101032.22;;;0.94;82.21
70833;BME280;58452;59.418;17.962;2022-11-20T09:57:08;101030.81;;;1.06;81.97
70833;BME280;58452;59.418;17.962;2022-11-20T09:59:39;101015.47;;;1.08;81.31
70833;BME280;58452;59.418;17.962;2022-11-20T10:02:30;101021.16;;;1.13;81.14
70833;BME280;58452;59.418;17.962;2022-11-20T10:07:42;101018.16;;;1.05;81.00
70833;BME280;58452;59.418;17.962;2022-11-20T10:10:18;101005.13;;;0.93;81.21
70833;BME280;58452;59.418;17.962;2022-11-20T10:20:46;100988.25;;;1.10;81.70
70833;BME280;58452;59.418;17.962;2022-11-20T10:23:48;100973.44;;;1.01;81.97
70833;BME280;58452;59.418;17.962;2022-11-20T10:26:43;100974.34;;;0.99;82.11
70833;BME280;58452;59.418;17.962;2022-11-20T10:29:16;100977.25;;;0.92;81.94
70833;BME280;58452;59.418;17.962;2022-11-20T10:31:48;100974.66;;;0.93;82.22
70833;BME280;58452;59.418;17.962;2022-11-20T10:37:05;100967.38;;;1.03;81.87
70833;BME280;58452;59.418;17.962;2022-11-20T10:39:47;100969.44;;;1.14;82.17
70833;BME280;58452;59.418;17.962;2022-11-20T10:42:30;100968.31;;;1.02;82.17
70833;BME280;58452;59.418;17.962;2022-11-20T10:50:35;100957.47;;;0.98;82.76
70833;BME280;58452;59.418;17.962;2022-11-20T10:55:46;100962.84;;;0.92;83.47
70833;BME280;58452;59.418;17.962;2022-11-20T11:01:20;100921.00;;;0.82;83.31
70833;BME280;58452;59.418;17.962;2022-11-20T11:03:50;100947.16;;;1.02;83.52
70833;BME280;58452;59.418;17.962;2022-11-20T11:06:43;100945.16;;;0.91;83.88
70833;BME280;58452;59.418;17.962;2022-11-20T11:09:17;100941.56;;;0.95;84.46
70833;BME280;58452;59.418;17.962;2022-11-20T11:11:45;100938.09;;;0.96;84.55
70833;BME280;58452;59.418;17.962;2022-11-20T11:14:12;100933.41;;;1.06;83.94
70833;BME280;58452;59.418;17.962;2022-11-20T11:16:53;100925.78;;;1.06;84.12
70833;BME280;58452;59.418;17.962;2022-11-20T11:19:19;100925.94;;;1.03;84.63
70833;BME280;58452;59.418;17.962;2022-11-20T11:21:50;100919.78;;;1.07;84.91
70833;BME280;58452;59.418;17.962;2022-11-20T11:24:28;100918.59;;;0.96;84.92
70833;BME280;58452;59.418;17.962;2022-11-20T11:29:24;100902.47;;;0.80;85.04
70833;BME280;58452;59.418;17.962;2022-11-20T11:32:10;100899.91;;;0.97;84.64
70833;BME280;58452;59.418;17.962;2022-11-20T11:34:36;100895.34;;;1.04;84.47
70833;BME280;58452;59.418;17.962;2022-11-20T11:37:02;100882.56;;;0.88;84.81
70833;BME280;58452;59.418;17.962;2022-11-20T11:39:32;100870.84;;;0.86;85.14
70833;BME280;58452;59.418;17.962;2022-11-20T11:42:00;100874.84;;;0.91;84.82
70833;BME280;58452;59.418;17.962;2022-11-20T11:44:32;100865.16;;;0.98;84.30
70833;BME280;58452;59.418;17.962;2022-11-20T11:47:29;100875.69;;;1.08;84.33
70833;BME280;58452;59.418;17.962;2022-11-20T11:52:38;100869.09;;;1.04;84.10
70833;BME280;58452;59.418;17.962;2022-11-20T11:55:09;100858.09;;;0.87;84.89
70833;BME280;58452;59.418;17.962;2022-11-20T11:57:43;100855.09;;;0.79;85.08
70833;BME280;58452;59.418;17.962;2022-11-20T12:00:14;100853.00;;;0.87;84.99
70833;BME280;58452;59.418;17.962;2022-11-20T12:10:23;100839.56;;;0.85;85.54
70833;BME280;58452;59.418;17.962;2022-11-20T12:13:01;100838.03;;;0.98;85.40
70833;BME280;58452;59.418;17.962;2022-11-20T12:15:33;100835.28;;;0.86;85.46
70833;BME280;58452;59.418;17.962;2022-11-20T12:17:59;100840.16;;;0.90;85.71
70833;BME280;58452;59.418;17.962;2022-11-20T12:20:29;100830.72;;;0.92;85.44
70833;BME280;58452;59.418;17.962;2022-11-20T12:23:17;100840.03;;;0.76;86.51
70833;BME280;58452;59.418;17.962;2022-11-20T12:25:48;100831.69;;;0.57;86.97
70833;BME280;58452;59.418;17.962;2022-11-20T12:36:56;100808.91;;;0.88;86.19
70833;BME280;58452;59.418;17.962;2022-11-20T12:39:34;100809.22;;;0.82;85.92
70833;BME280;58452;59.418;17.962;2022-11-20T12:45:08;100814.78;;;0.73;86.48
70833;BME280;58452;59.418;17.962;2022-11-20T13:07:08;100782.53;;;0.41;88.96
70833;BME280;58452;59.418;17.962;2022-11-20T13:09:38;100781.94;;;0.53;88.35
70833;BME280;58452;59.418;17.962;2022-11-20T13:12:11;100786.69;;;0.59;88.49
70833;BME280;58452;59.418;17.962;2022-11-20T13:15:02;100781.94;;;0.53;88.55
70833;BME280;58452;59.418;17.962;2022-11-20T13:17:37;100772.22;;;0.61;88.17
70833;BME280;58452;59.418;17.962;2022-11-20T13:20:11;100761.19;;;0.62;87.60
70833;BME280;58452;59.418;17.962;2022-11-20T13:22:51;100768.50;;;0.51;87.75
70833;BME280;58452;59.418;17.962;2022-11-20T13:27:53;100758.19;;;0.54;87.44
70833;BME280;58452;59.418;17.962;2022-11-20T13:30:26;100765.06;;;0.52;87.90
70833;BME280;58452;59.418;17.962;2022-11-20T13:32:55;100763.72;;;0.45;87.81
70833;BME280;58452;59.418;17.962;2022-11-20T13:35:35;100760.56;;;0.57;88.39
70833;BME280;58452;59.418;17.962;2022-11-20T13:38:07;100755.16;;;0.47;88.33
70833;BME280;58452;59.418;17.962;2022-11-20T13:40:36;100744.59;;;0.55;87.58
70833;BME280;58452;59.418;17.962;2022-11-20T13:43:19;100738.72;;;0.70;87.91
70833;BME280;58452;59.418;17.962;2022-11-20T13:46:00;100739.38;;;0.58;87.32
70833;BME280;58452;59.418;17.962;2022-11-20T13:48:31;100738.38;;;0.61;87.24
70833;BME280;58452;59.418;17.962;2022-11-20T13:51:07;100731.00;;;0.56;86.80
70833;BME280;58452;59.418;17.962;2022-11-20T13:56:47;100730.00;;;0.43;86.89
70833;BME280;58452;59.418;17.962;2022-11-20T14:02:00;100722.66;;;0.37;85.74
70833;BME280;58452;59.418;17.962;2022-11-20T14:04:33;100728.34;;;0.42;86.17
70833;BME280;58452;59.418;17.962;2022-11-20T14:07:00;100720.75;;;0.25;84.70
70833;BME280;58452;59.418;17.962;2022-11-20T14:09:28;100718.97;;;0.27;84.56
70833;BME280;58452;59.418;17.962;2022-11-20T14:11:54;100726.56;;;0.27;84.81
70833;BME280;58452;59.418;17.962;2022-11-20T14:14:21;100724.94;;;0.09;84.59
70833;BME280;58452;59.418;17.962;2022-11-20T14:16:48;100722.19;;;0.13;85.08
70833;BME280;58452;59.418;17.962;2022-11-20T14:21:49;100716.56;;;0.24;85.74
70833;BME280;58452;59.418;17.962;2022-11-20T14:24:22;100723.88;;;0.30;85.41
70833;BME280;58452;59.418;17.962;2022-11-20T14:26:49;100718.06;;;0.28;85.33